Time;durP1;ratioP1;P1;durP2;ratioP2;P2;SDS_P1;SDS_P2;PMS_P1;PMS_P2;Temp;Humidity;BMP_temperature;BMP_pressure;BME280_temperature;BME280_humidity;BME280_pressure;Samples;Min_cycle;Max_cycle;Signal;HPM_P1;HPM_P2
2023/05/05 00:01:13;;;;;;;11.33;3.07;;;;;;;;;;5056534;28;20492;-59
2023/05/05 00:03:41;;;;;;;3.50;2.43;;;;;;;;;;5055737;28;20455;-59
2023/05/05 00:06:11;;;;;;;9.50;3.37;;;;;;;;;;5055613;28;20456;-57
2023/05/05 00:08:38;;;;;;;4.07;2.47;;;;;;;;;;5055515;28;20483;-54
2023/05/05 00:11:05;;;;;;;4.13;2.30;;;;;;;;;;5055603;28;20436;-58
2023/05/05 00:13:34;;;;;;;5.77;2.50;;;;;;;;;;5055829;28;20448;-57
2023/05/05 00:16:02;;;;;;;7.93;2.30;;;;;;;;;;5055980;28;20445;-56
2023/05/05 00:18:30;;;;;;;2.90;1.80;;;;;;;;;;5055957;28;20468;-58
2023/05/05 00:20:57;;;;;;;5.37;2.80;;;;;;;;;;5054589;28;20428;-57
2023/05/05 00:23:24;;;;;;;6.10;2.93;;;;;;;;;;5054197;28;20428;-55
2023/05/05 00:25:51;;;;;;;5.77;3.07;;;;;;;;;;5053338;28;20457;-54
2023/05/05 00:28:18;;;;;;;3.67;2.70;;;;;;;;;;5053707;28;20458;-55
2023/05/05 00:30:47;;;;;;;4.83;2.23;;;;;;;;;;5054649;28;20615;-58
2023/05/05 00:33:14;;;;;;;9.67;3.77;;;;;;;;;;5055101;28;20436;-58
2023/05/05 00:35:41;;;;;;;5.93;3.60;;;;;;;;;;5055097;28;20523;-55
2023/05/05 00:38:09;;;;;;;7.03;2.33;;;;;;;;;;5054871;28;20913;-53
2023/05/05 00:40:37;;;;;;;2.80;2.00;;;;;;;;;;5054690;28;20440;-58
2023/05/05 00:43:04;;;;;;;4.03;2.30;;;;;;;;;;5054728;28;20432;-56
2023/05/05 00:45:31;;;;;;;6.03;3.07;;;;;;;;;;5055209;28;20512;-57
2023/05/05 00:48:07;;;;;;;6.40;3.27;;;;;;;;;;5054767;28;20425;-57
2023/05/05 00:50:46;;;;;;;3.67;1.93;;;;;;;;;;5055067;28;20500;-59
2023/05/05 00:53:13;;;;;;;6.83;2.57;;;;;;;;;;5054932;28;20475;-59
2023/05/05 00:55:40;;;;;;;2.53;2.10;;;;;;;;;;5055279;28;20877;-57
2023/05/05 00:58:08;;;;;;;2.73;1.80;;;;;;;;;;5054761;28;20479;-59
2023/05/05 01:00:37;;;;;;;12.23;3.10;;;;;;;;;;5054794;28;20425;-57
2023/05/05 01:03:07;;;;;;;5.60;2.60;;;;;;;;;;5054899;28;20448;-58
2023/05/05 01:05:39;;;;;;;5.27;2.60;;;;;;;;;;5055305;28;20452;-58
2023/05/05 01:08:21;;;;;;;4.70;2.40;;;12.80;99.90;;;;;;5055607;28;20452;-54
2023/05/05 01:10:53;;;;;;;4.70;2.23;;;;;;;;;;5055007;28;20475;-59
2023/05/05 01:13:22;;;;;;;4.40;2.50;;;;;;;;;;5055126;28;20488;-54
2023/05/05 01:15:52;;;;;;;11.13;2.47;;;;;;;;;;5055036;28;20452;-53
2023/05/05 01:18:31;;;;;;;7.37;2.93;;;12.80;99.90;;;;;;5054411;28;20436;-55
2023/05/05 01:21:02;;;;;;;3.70;2.63;;;;;;;;;;5055002;28;20467;-58
2023/05/05 01:23:38;;;;;;;6.07;2.70;;;;;;;;;;5055090;28;20449;-55
2023/05/05 01:26:24;;;;;;;4.97;1.73;;;12.60;99.90;;;;;;5055151;28;20448;-56
2023/05/05 01:29:04;;;;;;;2.70;2.07;;;;;;;;;;5054654;28;20432;-55
2023/05/05 01:31:54;;;;;;;4.50;2.50;;;12.60;99.90;;;;;;5056925;28;20408;-57
2023/05/05 01:34:25;;;;;;;6.20;2.00;;;12.50;99.90;;;;;;5053846;28;20463;-57
2023/05/05 01:37:06;;;;;;;4.13;2.83;;;;;;;;;;5058830;28;20405;-55
2023/05/05 01:39:34;;;;;;;2.20;2.00;;;12.70;99.90;;;;;;5058110;28;20425;-56
2023/05/05 01:42:05;;;;;;;6.03;2.10;;;;;;;;;;5057783;28;20436;-60
2023/05/05 01:44:35;;;;;;;6.80;2.33;;;;;;;;;;5058553;28;20496;-55
2023/05/05 01:47:05;;;;;;;11.27;2.80;;;12.50;99.90;;;;;;5058354;28;20424;-56
2023/05/05 01:49:36;;;;;;;3.90;2.80;;;12.30;99.90;;;;;;5058294;28;20495;-56
2023/05/05 01:52:04;;;;;;;5.07;2.67;;;12.10;99.90;;;;;;5058335;28;20439;-57
2023/05/05 01:54:32;;;;;;;5.03;2.20;;;;;;;;;;5057611;28;20455;-59
2023/05/05 01:56:59;;;;;;;4.97;2.83;;;;;;;;;;5058148;28;20420;-58
2023/05/05 01:59:27;;;;;;;5.67;1.87;;;;;;;;;;5057922;28;20746;-56
2023/05/05 02:01:56;;;;;;;3.03;2.13;;;12.30;99.90;;;;;;5057956;28;20455;-58
2023/05/05 02:04:26;;;;;;;5.77;2.57;;;12.40;99.90;;;;;;5055156;28;20440;-58
2023/05/05 02:06:54;;;;;;;3.97;2.50;;;;;;;;;;5042412;28;20567;-59
2023/05/05 02:09:21;;;;;;;5.73;3.70;;;;;;;;;;5042031;28;20619;-60
2023/05/05 02:11:49;;;;;;;5.23;2.90;;;;;;;;;;5042225;28;20476;-56
2023/05/05 02:14:19;;;;;;;8.77;2.60;;;12.20;99.90;;;;;;5041925;28;20448;-59
2023/05/05 02:16:47;;;;;;;8.50;2.03;;;;;;;;;;5042675;28;20448;-59
2023/05/05 02:19:15;;;;;;;4.70;2.27;;;12.40;99.90;;;;;;5050036;28;20435;-57
2023/05/05 02:21:44;;;;;;;3.47;2.90;;;;;;;;;;5049632;28;20779;-60
2023/05/05 02:24:11;;;;;;;5.90;2.67;;;;;;;;;;5044838;28;20479;-59
2023/05/05 02:26:40;;;;;;;5.67;2.00;;;;;;;;;;5042151;28;20480;-58
2023/05/05 02:29:10;;;;;;;3.43;2.60;;;12.10;99.90;;;;;;5045047;28;20751;-60
2023/05/05 02:31:48;;;;;;;5.20;2.47;;;12.10;99.90;;;;;;5055047;28;20519;-58
2023/05/05 02:34:22;;;;;;;4.33;2.47;;;12.10;99.90;;;;;;5050538;28;20444;-60
2023/05/05 02:36:52;;;;;;;8.10;2.90;;;;;;;;;;5041822;28;20884;-61
2023/05/05 02:39:22;;;;;;;4.97;2.93;;;;;;;;;;5042184;28;20479;-59
2023/05/05 02:41:52;;;;;;;7.63;2.37;;;12.30;99.90;;;;;;5042275;28;20518;-56
2023/05/05 02:44:20;;;;;;;3.97;2.33;;;;;;;;;;5044869;28;20929;-57
2023/05/05 02:46:47;;;;;;;2.90;2.00;;;;;;;;;;5050860;28;20476;-60
2023/05/05 02:49:15;;;;;;;3.30;1.73;;;;;;;;;;5047679;28;20459;-61
2023/05/05 02:51:43;;;;;;;8.90;2.50;;;;;;;;;;5041693;28;20452;-58
2023/05/05 02:54:12;;;;;;;13.00;3.10;;;;;;;;;;5041846;28;20511;-60
2023/05/05 02:56:41;;;;;;;8.13;3.07;;;;;;;;;;5041202;28;20921;-56
2023/05/05 02:59:15;;;;;;;7.60;2.13;;;;;;;;;;5041908;28;20468;-58
2023/05/05 03:01:58;;;;;;;13.63;2.43;;;11.80;99.90;;;;;;5041766;28;20774;-59
2023/05/05 03:04:29;;;;;;;3.43;2.40;;;12.10;99.90;;;;;;5045668;28;20468;-55
2023/05/05 03:07:06;;;;;;;9.40;2.90;;;11.80;99.90;;;;;;5044004;28;20484;-60
2023/05/05 03:09:38;;;;;;;7.83;3.20;;;;;;;;;;5041143;28;20502;-59
2023/05/05 03:12:09;;;;;;;7.30;2.47;;;11.80;99.90;;;;;;5042056;28;20531;-59
2023/05/05 03:14:40;;;;;;;2.90;2.10;;;;;;;;;;5048663;28;20468;-58
2023/05/05 03:17:08;;;;;;;5.47;3.20;;;;;;;;;;5040818;28;20457;-59
2023/05/05 03:19:38;;;;;;;6.63;3.13;;;11.70;99.90;;;;;;5041675;28;20444;-59
2023/05/05 03:22:05;;;;;;;2.80;2.47;;;;;;;;;;5041530;28;20468;-58
2023/05/05 03:24:34;;;;;;;4.40;2.20;;;;;;;;;;5040938;28;20479;-59
2023/05/05 03:27:01;;;;;;;8.10;3.53;;;;;;;;;;5040561;28;20551;-61
2023/05/05 03:29:29;;;;;;;5.60;3.10;;;;;;;;;;5040974;28;20792;-59
2023/05/05 03:31:59;;;;;;;9.13;2.87;;;;;;;;;;5048519;28;20444;-60
2023/05/05 03:34:27;;;;;;;5.63;2.20;;;;;;;;;;5041362;28;20490;-57
2023/05/05 03:36:54;;;;;;;2.10;1.90;;;;;;;;;;5042058;28;20507;-58
2023/05/05 03:39:21;;;;;;;7.20;3.03;;;;;;;;;;5040952;28;21063;-60
2023/05/05 03:41:50;;;;;;;4.73;3.20;;;;;;;;;;5040654;28;20527;-59
2023/05/05 03:44:19;;;;;;;3.63;2.70;;;;;;;;;;5046173;28;20472;-59
2023/05/05 03:46:46;;;;;;;5.50;2.37;;;;;;;;;;5040744;28;20448;-60
2023/05/05 03:49:13;;;;;;;5.33;2.60;;;;;;;;;;5041378;28;20483;-58
2023/05/05 03:51:40;;;;;;;5.77;2.90;;;;;;;;;;5040901;28;20543;-59
2023/05/05 03:54:07;;;;;;;9.27;3.07;;;;;;;;;;5041050;28;20456;-59
2023/05/05 03:56:35;;;;;;;3.67;2.70;;;;;;;;;;5041593;28;20503;-59
2023/05/05 03:59:04;;;;;;;5.60;2.70;;;;;;;;;;5047137;28;20447;-56
2023/05/05 04:01:31;;;;;;;5.30;2.60;;;;;;;;;;5049021;28;20473;-61
2023/05/05 04:03:58;;;;;;;3.30;3.00;;;;;;;;;;5041514;28;20500;-58
2023/05/05 04:06:26;;;;;;;4.63;2.53;;;;;;;;;;5041291;28;20491;-59
2023/05/05 04:08:53;;;;;;;8.13;3.30;;;;;;;;;;5041112;28;20459;-58
2023/05/05 04:11:21;;;;;;;4.00;2.70;;;;;;;;;;5040692;28;20476;-59
2023/05/05 04:13:48;;;;;;;5.53;3.00;;;;;;;;;;5041013;28;20563;-58
2023/05/05 04:16:17;;;;;;;7.77;3.23;;;;;;;;;;5040550;28;20440;-56
2023/05/05 04:18:44;;;;;;;2.90;2.60;;;;;;;;;;5040351;28;20555;-59
2023/05/05 04:21:12;;;;;;;2.97;2.67;;;;;;;;;;5039960;28;20882;-60
2023/05/05 04:23:42;;;;;;;4.40;3.07;;;;;;;;;;5039807;28;20479;-59
2023/05/05 04:26:09;;;;;;;3.63;2.40;;;;;;;;;;5050126;28;20441;-57
2023/05/05 04:28:36;;;;;;;3.70;2.67;;;;;;;;;;5050365;28;20474;-58
2023/05/05 04:31:04;;;;;;;8.13;3.00;;;;;;;;;;5047305;28;20498;-61
2023/05/05 04:33:34;;;;;;;11.63;3.40;;;;;;;;;;5040426;28;20810;-59
2023/05/05 04:36:01;;;;;;;6.50;2.13;;;;;;;;;;5039561;28;20469;-60
2023/05/05 04:38:28;;;;;;;10.60;4.13;;;;;;;;;;5040836;28;20765;-60
2023/05/05 04:40:56;;;;;;;7.90;3.37;;;;;;;;;;5040241;28;20944;-58
2023/05/05 04:43:24;;;;;;;4.27;2.97;;;;;;;;;;5040456;28;20452;-60
2023/05/05 04:45:54;;;;;;;4.37;2.53;;;;;;;;;;5039915;28;20480;-60
2023/05/05 04:48:21;;;;;;;4.00;2.70;;;;;;;;;;5040368;28;21020;-59
2023/05/05 04:50:50;;;;;;;7.00;2.63;;;;;;;;;;5040064;28;20767;-58
2023/05/05 04:53:17;;;;;;;7.30;2.40;;;;;;;;;;5039957;28;20475;-57
2023/05/05 04:55:46;;;;;;;3.80;3.10;;;;;;;;;;5040366;28;20479;-61
2023/05/05 04:58:13;;;;;;;9.53;3.70;;;;;;;;;;5041019;28;20476;-59
2023/05/05 05:00:40;;;;;;;4.67;2.67;;;;;;;;;;5040487;28;20479;-59
2023/05/05 05:03:08;;;;;;;5.00;2.83;;;;;;;;;;5044867;28;20535;-59
2023/05/05 05:05:37;;;;;;;4.30;3.20;;;;;;;;;;5040206;28;20476;-60
2023/05/05 05:08:06;;;;;;;22.33;2.67;;;;;;;;;;5043854;28;20816;-59
2023/05/05 05:10:39;;;;;;;6.20;4.00;;;;;;;;;;5043766;28;20511;-59
2023/05/05 05:13:06;;;;;;;4.37;2.97;;;;;;;;;;5043783;28;20508;-58
2023/05/05 05:15:33;;;;;;;13.47;3.93;;;;;;;;;;5043503;28;20444;-59
2023/05/05 05:18:00;;;;;;;3.20;2.60;;;;;;;;;;5044617;28;20457;-58
2023/05/05 05:20:27;;;;;;;5.97;3.33;;;;;;;;;;5053735;28;20441;-53
2023/05/05 05:22:56;;;;;;;6.20;3.20;;;;;;;;;;5048098;28;20602;-59
2023/05/05 05:25:24;;;;;;;6.17;3.00;;;;;;;;;;5043638;28;20506;-59
2023/05/05 05:27:51;;;;;;;5.70;3.20;;;;;;;;;;5043167;28;20538;-56
2023/05/05 05:30:19;;;;;;;4.83;3.20;;;;;;;;;;5043935;28;20971;-57
2023/05/05 05:32:46;;;;;;;6.77;3.43;;;;;;;;;;5043950;28;20486;-60
2023/05/05 05:35:13;;;;;;;4.67;2.53;;;;;;;;;;5043281;28;20528;-59
2023/05/05 05:37:40;;;;;;;4.90;2.77;;;;;;;;;;5043457;28;20476;-57
2023/05/05 05:40:08;;;;;;;3.60;2.63;;;;;;;;;;5043165;28;20511;-59
2023/05/05 05:42:37;;;;;;;13.17;3.07;;;;;;;;;;5042189;28;20451;-60
2023/05/05 05:45:04;;;;;;;6.80;3.93;;;;;;;;;;5039696;28;20468;-59
2023/05/05 05:47:31;;;;;;;7.83;2.90;;;;;;;;;;5040380;28;20502;-61
2023/05/05 05:49:58;;;;;;;4.63;2.83;;;;;;;;;;5040398;28;20515;-59
2023/05/05 05:52:25;;;;;;;5.33;3.00;;;;;;;;;;5040283;28;20463;-61
2023/05/05 05:54:53;;;;;;;4.17;3.77;;;;;;;;;;5039994;28;20480;-54
2023/05/05 05:57:21;;;;;;;7.13;4.13;;;;;;;;;;5039930;28;20472;-60
2023/05/05 05:59:49;;;;;;;4.87;3.40;;;;;;;;;;5042820;28;20447;-61
2023/05/05 06:02:17;;;;;;;5.97;3.53;;;;;;;;;;5042344;28;20487;-59
2023/05/05 06:04:45;;;;;;;9.87;3.40;;;;;;;;;;5042096;28;20475;-59
2023/05/05 06:07:12;;;;;;;10.40;3.90;;;;;;;;;;5041878;28;20495;-60
2023/05/05 06:09:40;;;;;;;3.27;2.87;;;;;;;;;;5042887;28;20475;-60
2023/05/05 06:12:07;;;;;;;5.30;3.03;;;;;;;;;;5042255;28;20488;-59
2023/05/05 06:14:34;;;;;;;10.13;4.13;;;;;;;;;;5042217;28;20563;-59
2023/05/05 06:17:03;;;;;;;10.13;3.60;;;;;;;;;;5041110;28;20504;-58
2023/05/05 06:19:30;;;;;;;4.40;3.33;;;;;;;;;;5037455;28;20956;-58
2023/05/05 06:21:57;;;;;;;5.60;2.90;;;;;;;;;;5040825;28;20483;-58
2023/05/05 06:24:24;;;;;;;13.27;4.23;;;;;;;;;;5056528;28;20483;-55
2023/05/05 06:26:51;;;;;;;4.80;3.10;;;;;;;;;;5057145;28;20425;-60
2023/05/05 06:29:18;;;;;;;24.17;5.30;;;;;;;;;;5056795;28;20518;-58
2023/05/05 06:31:46;;;;;;;8.63;4.20;;;;;;;;;;5047695;28;20480;-54
2023/05/05 06:34:14;;;;;;;6.67;3.70;;;;;;;;;;5049619;28;20472;-58
2023/05/05 06:36:41;;;;;;;4.73;2.63;;;;;;;;;;5040639;28;20550;-59
2023/05/05 06:39:08;;;;;;;4.50;3.17;;;;;;;;;;5044166;28;20454;-59
2023/05/05 06:41:36;;;;;;;3.00;2.10;;;;;;;;;;5044224;28;20444;-60
2023/05/05 06:44:03;;;;;;;5.23;2.80;;;;;;;;;;5039505;28;20528;-60
2023/05/05 06:46:30;;;;;;;8.73;2.70;;;;;;;;;;5041288;28;20504;-59
2023/05/05 06:48:57;;;;;;;14.80;4.03;;;;;;;;;;5043196;28;20499;-58
2023/05/05 06:51:26;;;;;;;8.23;3.80;;;;;;;;;;5037928;28;20550;-60
2023/05/05 06:53:53;;;;;;;6.10;3.00;;;;;;;;;;5048424;28;20475;-60
2023/05/05 06:56:20;;;;;;;9.95;8.27;;;;;;;;;;5056087;28;20457;-56
2023/05/05 06:58:47;;;;;;;4.70;3.40;;;;;;;;;;5053512;28;20209;-61
2023/05/05 07:01:15;;;;;;;6.17;2.97;;;;;;;;;;5040512;28;20460;-60
2023/05/05 07:03:42;;;;;;;4.43;3.20;;;;;;;;;;5039928;28;20498;-60
2023/05/05 07:06:12;;;;;;;6.80;3.00;;;;;;;;;;5054157;28;20476;-58
2023/05/05 07:08:40;;;;;;;7.33;3.03;;;;;;;;;;5054057;28;20440;-58
2023/05/05 07:11:07;;;;;;;4.00;3.03;;;;;;;;;;5056386;28;20488;-57
2023/05/05 07:13:35;;;;;;;3.87;2.53;;;;;;;;;;5056456;28;20444;-55
2023/05/05 07:16:02;;;;;;;20.37;3.80;;;;;;;;;;5057139;28;20432;-57
2023/05/05 07:18:29;;;;;;;7.17;2.90;;;;;;;;;;5056958;28;20442;-59
2023/05/05 07:20:56;;;;;;;6.90;3.70;;;;;;;;;;5056307;28;20444;-57
2023/05/05 07:23:26;;;;;;;9.23;4.47;;;;;;;;;;5053741;28;20508;-59
2023/05/05 07:25:55;;;;;;;5.30;3.00;;;;;;;;;;5054014;28;20448;-59
2023/05/05 07:28:22;;;;;;;6.80;3.03;;;;;;;;;;5054613;28;20528;-60
2023/05/05 07:30:51;;;;;;;8.43;3.00;;;;;;;;;;5054034;28;20844;-58
2023/05/05 07:33:18;;;;;;;2.80;2.30;;;;;;;;;;5055457;28;20443;-57
2023/05/05 07:35:47;;;;;;;5.13;2.43;;;15.80;99.90;;;;;;5056586;28;20440;-57
2023/05/05 07:38:14;;;;;;;8.07;3.30;;;;;;;;;;5056707;28;20487;-56
2023/05/05 07:40:42;;;;;;;5.33;2.70;;;;;;;;;;5056526;28;20444;-59
2023/05/05 07:43:10;;;;;;;6.97;2.90;;;;;;;;;;5056335;28;20443;-55
2023/05/05 07:45:37;;;;;;;5.10;3.23;;;;;;;;;;5056353;28;20476;-55
2023/05/05 07:48:05;;;;;;;8.80;2.93;;;;;;;;;;5054428;28;20440;-57
2023/05/05 07:50:32;;;;;;;5.77;3.10;;;;;;;;;;5054912;28;20464;-56
2023/05/05 07:52:59;;;;;;;5.83;3.10;;;;;;;;;;5055528;28;20437;-56
2023/05/05 07:55:26;;;;;;;11.03;4.10;;;;;;;;;;5054400;28;20464;-59
2023/05/05 07:57:53;;;;;;;3.83;2.53;;;;;;;;;;5051415;28;20977;-59
2023/05/05 08:00:22;;;;;;;5.63;4.03;;;25.80;77.70;;;;;;5050795;28;20464;-60
2023/05/05 08:02:49;;;;;;;7.60;3.00;;;;;;;;;;5050586;28;20473;-57
2023/05/05 08:05:16;;;;;;;6.80;3.80;;;;;;;;;;5050573;28;20534;-61
2023/05/05 08:07:43;;;;;;;8.03;3.30;;;;;;;;;;5050939;28;20457;-59
2023/05/05 08:10:12;;;;;;;9.53;3.93;;;28.00;69.40;;;;;;5048615;28;20499;-62
2023/05/05 08:12:39;;;;;;;12.73;3.13;;;;;;;;;;5051384;28;20475;-60
2023/05/05 08:15:06;;;;;;;7.30;3.77;;;;;;;;;;5050351;28;20519;-58
2023/05/05 08:17:48;;;;;;;8.30;3.43;;;29.10;64.50;;;;;;5051618;28;20413;-58
2023/05/05 08:20:15;;;;;;;5.00;3.53;;;;;;;;;;5046288;28;20459;-60
2023/05/05 08:22:43;;;;;;;10.73;3.70;;;;;;;;;;5045447;28;20496;-55
2023/05/05 08:25:11;;;;;;;4.80;3.07;;;;;;;;;;5053392;28;20440;-59
2023/05/05 08:27:39;;;;;;;7.97;3.63;;;;;;;;;;5055031;28;20468;-62
2023/05/05 08:30:07;;;;;;;5.97;3.77;;;;;;;;;;5050981;28;20508;-62
2023/05/05 08:32:34;;;;;;;6.97;3.50;;;;;;;;;;5045948;28;20571;-63
2023/05/05 08:35:03;;;;;;;7.83;4.90;;;;;;;;;;5045233;28;20559;-62
2023/05/05 08:37:30;;;;;;;4.50;3.53;;;;;;;;;;5039434;28;20588;-64
2023/05/05 08:39:57;;;;;;;6.77;3.17;;;;;;;;;;5039728;28;20490;-63
2023/05/05 08:42:25;;;;;;;5.00;3.57;;;;;;;;;;5044387;28;20425;-60
2023/05/05 08:44:52;;;;;;;5.80;3.90;;;;;;;;;;5042288;28;20999;-61
2023/05/05 08:47:19;;;;;;;7.87;3.40;;;;;;;;;;5040663;28;20554;-62
2023/05/05 08:49:47;;;;;;;8.67;3.60;;;;;;;;;;5041451;28;20593;-62
2023/05/05 08:52:16;;;;;;;4.93;3.20;;;;;;;;;;5038543;28;20523;-62
2023/05/05 08:54:50;;;;;;;5.90;3.70;;;29.80;62.60;;;;;;5038480;28;20893;-61
2023/05/05 08:57:23;;;;;;;3.73;3.40;;;29.70;65.30;;;;;;5038683;28;20520;-62
2023/05/05 08:59:50;;;;;;;12.40;3.80;;;;;;;;;;5038417;28;20863;-61
2023/05/05 09:02:22;;;;;;;4.60;3.20;;;29.90;61.80;;;;;;5038517;28;20468;-60
2023/05/05 09:04:52;;;;;;;11.30;6.33;;;;;;;;;;5037985;28;20476;-62
2023/05/05 09:07:22;;;;;;;5.70;3.67;;;29.40;65.50;;;;;;5038143;28;20458;-60
2023/05/05 09:09:49;;;;;;;7.57;4.37;;;29.80;64.90;;;;;;5038146;28;20531;-60
2023/05/05 09:12:17;;;;;;;5.57;4.30;;;;;;;;;;5037945;28;20538;-59
2023/05/05 09:14:46;;;;;;;7.10;4.60;;;29.70;65.10;;;;;;5038005;28;20459;-65
2023/05/05 09:17:23;;;;;;;5.70;3.58;;;29.70;64.10;;;;;;5037932;28;20516;-62
2023/05/05 09:20:02;;;;;;;7.40;4.13;;;;;;;;;;5043235;28;20209;-64
2023/05/05 09:22:38;;;;;;;4.00;3.60;;;;;;;;;;5041881;28;20455;-62
2023/05/05 09:25:05;;;;;;;6.10;3.10;;;29.90;60.00;;;;;;5038263;28;20530;-62
2023/05/05 09:27:36;;;;;;;5.53;3.80;;;;;;;;;;5038201;28;20476;-61
2023/05/05 09:30:04;;;;;;;5.20;3.27;;;29.40;60.30;;;;;;5037629;28;20504;-61
2023/05/05 09:32:31;;;;;;;8.10;4.20;;;;;;;;;;5037234;28;20480;-62
2023/05/05 09:34:59;;;;;;;6.50;3.23;;;;;;;;;;5037625;28;20551;-63
2023/05/05 09:37:27;;;;;;;7.27;4.17;;;;;;;;;;5037589;28;20475;-63
2023/05/05 09:39:57;;;;;;;4.30;3.20;;;29.70;66.00;;;;;;5037646;28;20851;-62
2023/05/05 09:42:24;;;;;;;5.20;3.50;;;;;;;;;;5037357;28;20499;-61
2023/05/05 09:44:52;;;;;;;6.73;3.57;;;;;;;;;;5038132;28;20503;-61
2023/05/05 09:47:19;;;;;;;6.67;3.87;;;;;;;;;;5037351;28;20593;-58
2023/05/05 09:49:57;;;;;;;4.93;3.50;;;;;;;;;;5036893;28;20491;-61
2023/05/05 09:52:24;;;;;;;9.00;4.60;;;;;;;;;;5037053;28;20920;-63
2023/05/05 09:54:55;;;;;;;7.30;3.97;;;;;;;;;;5037086;28;20519;-63
2023/05/05 09:57:30;;;;;;;5.83;3.43;;;;;;;;;;5037162;28;20456;-61
2023/05/05 09:59:59;;;;;;;14.90;4.40;;;27.90;69.40;;;;;;5038480;28;20443;-62
2023/05/05 10:02:33;;;;;;;7.33;3.93;;;;;;;;;;5037128;28;20472;-65
2023/05/05 10:05:07;;;;;;;4.00;2.87;;;;;;;;;;5036583;28;20530;-59
2023/05/05 10:07:34;;;;;;;7.00;4.20;;;;;;;;;;5036524;28;20503;-63
2023/05/05 10:10:02;;;;;;;5.53;4.50;;;;;;;;;;5036818;28;20531;-62
2023/05/05 10:12:30;;;;;;;6.40;3.30;;;;;;;;;;5036703;28;20827;-60
2023/05/05 10:14:58;;;;;;;7.33;3.53;;;;;;;;;;5036515;28;20940;-60
2023/05/05 10:17:25;;;;;;;5.20;3.77;;;;;;;;;;5036446;28;20463;-62
2023/05/05 10:19:56;;;;;;;7.10;3.13;;;27.00;68.80;;;;;;5036381;28;20559;-62
2023/05/05 10:22:24;;;;;;;8.37;3.27;;;;;;;;;;5037999;28;20798;-62
2023/05/05 10:24:57;;;;;;;5.70;3.80;;;26.40;72.30;;;;;;5040499;28;20448;-62
2023/05/05 10:27:25;;;;;;;5.90;4.53;;;26.70;71.60;;;;;;5040965;28;20511;-62
2023/05/05 10:29:56;;;;;;;6.20;3.57;;;;;;;;;;5040449;28;20487;-61
2023/05/05 10:32:27;;;;;;;8.27;3.40;;;26.80;72.20;;;;;;5043317;28;20543;-62
2023/05/05 10:34:59;;;;;;;6.50;4.03;;;26.60;67.40;;;;;;5040934;28;20424;-60
2023/05/05 10:37:26;;;;;;;10.97;3.70;;;;;;;;;;5040532;28;20947;-62
2023/05/05 10:39:57;;;;;;;5.50;3.53;;;;;;;;;;5040461;28;20453;-61
2023/05/05 10:42:24;;;;;;;6.03;3.70;;;;;;;;;;5041536;28;20524;-59
2023/05/05 10:44:52;;;;;;;13.43;4.50;;;;;;;;;;5040591;28;20472;-62
2023/05/05 10:47:21;;;;;;;7.03;3.70;;;;;;;;;;5040712;28;20490;-61
2023/05/05 10:49:55;;;;;;;5.90;3.47;;;25.90;76.90;;;;;;5040289;28;20476;-62
2023/05/05 10:52:26;;;;;;;10.50;4.60;;;;;;;;;;5042755;28;20814;-59
2023/05/05 10:55:01;;;;;;;8.17;4.67;;;25.60;76.70;;;;;;5043621;28;20429;-61
2023/05/05 10:57:29;;;;;;;10.10;4.40;;;25.60;75.60;;;;;;5053374;28;20451;-62
2023/05/05 10:59:56;;;;;;;5.80;3.60;;;;;;;;;;5039416;28;20432;-63
2023/05/05 11:02:25;;;;;;;3.67;3.33;;;25.60;71.30;;;;;;5038635;28;20511;-65
2023/05/05 11:05:09;;;;;;;6.27;3.93;;;;;;;;;;5039245;28;20466;-61
2023/05/05 11:07:36;;;;;;;7.60;3.90;;;;;;;;;;5036202;28;20467;-62
2023/05/05 11:10:05;;;;;;;5.07;3.50;;;25.30;76.80;;;;;;5042467;28;20491;-63
2023/05/05 11:12:32;;;;;;;15.30;9.20;;;;;;;;;;5050679;28;20522;-62
2023/05/05 11:15:40;;;;;;;35.87;21.33;;;25.20;69.90;;;;;;5056969;28;20463;-58
2023/05/05 11:18:43;;;;;;;19.70;11.50;;;25.60;77.90;;;;;;5056486;28;20928;-60
2023/05/05 11:21:17;;;;;;;9.33;6.00;;;;;;;;;;5029530;28;20476;-59
2023/05/05 11:23:45;;;;;;;6.20;3.20;;;;;;;;;;5056772;28;20472;-59
2023/05/05 11:26:15;;;;;;;6.23;2.80;;;;;;;;;;5056477;28;20436;-58
2023/05/05 11:29:01;;;;;;;6.10;2.90;;;25.00;78.50;;;;;;5056306;28;20478;-60
2023/05/05 11:31:29;;;;;;;5.83;3.37;;;;;;;;;;5055296;28;20439;-59
2023/05/05 11:34:26;;;;;;;2.73;2.43;;;24.30;79.00;;;;;;5055322;28;20493;-61
2023/05/05 11:36:57;;;;;;;6.50;4.27;;;;;;;;;;5054294;28;20516;-60
2023/05/05 11:39:32;;;;;;;4.80;3.90;;;23.90;77.50;;;;;;5055882;28;20455;-60
2023/05/05 11:42:18;;;;;;;5.60;3.87;;;24.20;76.20;;;;;;5052220;28;20430;-60
2023/05/05 11:44:46;;;;;;;3.53;2.90;;;;;;;;;;5048307;28;20429;-61
2023/05/05 11:47:31;;;;;;;6.60;3.20;;;23.90;81.00;;;;;;5041250;28;20420;-56
2023/05/05 11:50:16;;;;;;;4.40;3.17;;;;;;;;;;5051446;28;20432;-60
2023/05/05 11:52:44;;;;;;;8.33;3.90;;;;;;;;;;5047068;28;20488;-60
2023/05/05 11:55:11;;;;;;;4.47;3.13;;;23.50;78.30;;;;;;5036373;28;20494;-61
2023/05/05 11:57:38;;;;;;;4.10;3.53;;;;;;;;;;5035555;28;20496;-62
2023/05/05 12:00:08;;;;;;;5.23;3.70;;;23.30;80.70;;;;;;5036139;28;20429;-61
2023/05/05 12:02:35;;;;;;;10.10;3.07;;;;;;;;;;5035693;28;20444;-60
2023/05/05 12:05:04;;;;;;;5.10;3.90;;;23.50;78.80;;;;;;5038609;28;20472;-61
2023/05/05 12:07:33;;;;;;;4.90;3.37;;;;;;;;;;5038796;28;20432;-61
2023/05/05 12:10:01;;;;;;;7.00;3.23;;;;;;;;;;5036052;28;20843;-63
2023/05/05 12:12:35;;;;;;;12.93;4.50;;;;;;;;;;5036052;28;20476;-61
2023/05/05 12:15:02;;;;;;;4.50;3.30;;;;;;;;;;5035630;28;20551;-61
2023/05/05 12:17:38;;;;;;;6.97;4.00;;;23.40;78.00;;;;;;5035690;28;20476;-61
2023/05/05 12:20:09;;;;;;;9.07;3.70;;;;;;;;;;5041014;28;20531;-61
2023/05/05 12:22:37;;;;;;;3.57;3.27;;;;;;;;;;5049405;28;20494;-61
2023/05/05 12:25:05;;;;;;;6.03;3.43;;;23.50;80.80;;;;;;5040482;28;20519;-60
2023/05/05 12:27:34;;;;;;;9.10;3.17;;;;;;;;;;5037123;28;20440;-60
2023/05/05 12:30:12;;;;;;;5.27;2.77;;;23.50;82.70;;;;;;5038418;28;20523;-61
2023/05/05 12:32:40;;;;;;;5.67;3.60;;;;;;;;;;5043601;28;20476;-61
2023/05/05 12:35:12;;;;;;;7.07;3.67;;;23.70;81.70;;;;;;5036747;28;20479;-61
2023/05/05 12:37:39;;;;;;;3.60;3.17;;;;;;;;;;5047612;28;20439;-60
2023/05/05 12:40:07;;;;;;;7.33;2.73;;;;;;;;;;5049644;28;20444;-60
2023/05/05 12:42:39;;;;;;;6.60;3.73;;;23.70;82.40;;;;;;5056077;28;20424;-60
2023/05/05 12:45:15;;;;;;;3.30;3.00;;;23.30;82.40;;;;;;5051970;28;20428;-61
2023/05/05 12:47:43;;;;;;;8.70;4.47;;;;;;;;;;5040107;28;20471;-63
2023/05/05 12:50:12;;;;;;;4.60;3.70;;;;;;;;;;5036907;28;20456;-61
2023/05/05 12:52:42;;;;;;;4.93;4.40;;;23.20;83.20;;;;;;5035297;28;20579;-60
2023/05/05 12:55:10;;;;;;;5.33;3.20;;;23.40;82.30;;;;;;5035847;28;20455;-63
2023/05/05 12:57:38;;;;;;;5.57;4.00;;;;;;;;;;5035844;28;20470;-61
2023/05/05 13:00:15;;;;;;;8.90;3.93;;;;;;;;;;5035921;28;20551;-61
2023/05/05 13:02:42;;;;;;;5.57;2.70;;;;;;;;;;5035315;28;20450;-61
2023/05/05 13:05:09;;;;;;;4.20;3.47;;;;;;;;;;5035271;28;20563;-61
2023/05/05 13:07:49;;;;;;;6.23;3.37;;;;;;;;;;5035211;28;20491;-55
2023/05/05 13:10:16;;;;;;;5.63;3.07;;;;;;;;;;5034948;28;20468;-63
2023/05/05 13:12:44;;;;;;;7.93;3.53;;;;;;;;;;5035378;28;20480;-62
2023/05/05 13:15:11;;;;;;;7.03;4.53;;;;;;;;;;5035173;28;20490;-61
2023/05/05 13:17:39;;;;;;;11.97;3.27;;;;;;;;;;5037472;28;20570;-60
2023/05/05 13:20:07;;;;;;;3.00;2.70;;;;;;;;;;5036253;28;20472;-62
2023/05/05 13:22:35;;;;;;;5.63;3.33;;;;;;;;;;5035413;28;20444;-61
2023/05/05 13:25:03;;;;;;;7.37;3.47;;;;;;;;;;5035100;28;20487;-61
2023/05/05 13:27:30;;;;;;;3.43;2.40;;;;;;;;;;5038915;28;20444;-62
2023/05/05 13:29:58;;;;;;;5.13;3.17;;;;;;;;;;5042108;28;20476;-64
2023/05/05 13:32:25;;;;;;;4.40;2.90;;;;;;;;;;5038980;28;20538;-61
2023/05/05 13:34:52;;;;;;;3.50;3.20;;;;;;;;;;5039666;28;20900;-60
2023/05/05 13:37:19;;;;;;;3.40;2.30;;;;;;;;;;5053768;28;20431;-62
2023/05/05 13:39:47;;;;;;;3.23;2.53;;;;;;;;;;5043426;28;20462;-61
2023/05/05 13:42:15;;;;;;;7.80;2.80;;;;;;;;;;5038929;28;20507;-61
2023/05/05 13:44:42;;;;;;;12.57;3.07;;;;;;;;;;5047635;28;20466;-60
2023/05/05 13:47:09;;;;;;;6.20;2.97;;;;;;;;;;5050357;28;20536;-62
2023/05/05 13:49:37;;;;;;;3.90;2.73;;;;;;;;;;5041149;28;20452;-62
2023/05/05 13:52:04;;;;;;;9.60;3.40;;;;;;;;;;5038105;28;20475;-62
2023/05/05 13:54:32;;;;;;;6.37;3.40;;;;;;;;;;5038133;28;21023;-62
2023/05/05 13:56:59;;;;;;;6.43;3.07;;;;;;;;;;5038438;28;20475;-62
2023/05/05 13:59:27;;;;;;;4.57;3.20;;;;;;;;;;5038517;28;20531;-62
2023/05/05 14:01:54;;;;;;;4.97;2.90;;;;;;;;;;5038474;28;20456;-60
2023/05/05 14:04:22;;;;;;;5.80;3.23;;;;;;;;;;5038576;28;20923;-61
2023/05/05 14:06:49;;;;;;;3.63;3.00;;;;;;;;;;5038344;28;20475;-60
2023/05/05 14:09:16;;;;;;;3.97;3.47;;;;;;;;;;5038908;28;20539;-61
2023/05/05 14:11:43;;;;;;;3.33;2.93;;;;;;;;;;5038260;28;20816;-62
2023/05/05 14:14:10;;;;;;;5.50;3.30;;;;;;;;;;5037961;28;21030;-61
2023/05/05 14:16:39;;;;;;;4.47;3.03;;;;;;;;;;5038096;28;20533;-60
2023/05/05 14:19:06;;;;;;;9.50;2.70;;;;;;;;;;5037881;28;20542;-63
2023/05/05 14:21:33;;;;;;;4.87;2.30;;;;;;;;;;5039483;28;20527;-59
2023/05/05 14:24:00;;;;;;;3.40;2.53;;;;;;;;;;5039229;28;20444;-61
2023/05/05 14:26:28;;;;;;;4.13;2.90;;;;;;;;;;5037242;28;20452;-62
2023/05/05 14:28:55;;;;;;;8.30;3.40;;;;;;;;;;5042684;28;20459;-53
2023/05/05 14:31:22;;;;;;;14.20;3.80;;;;;;;;;;5056906;28;20452;-54